Time;durP1;ratioP1;P1;durP2;ratioP2;P2;SDS_P1;SDS_P2;PMS_P1;PMS_P2;Temp;Humidity;BMP_temperature;BMP_pressure;BME280_temperature;BME280_humidity;BME280_pressure;Samples;Min_cycle;Max_cycle;Signal;HPM_P1;HPM_P2
2021/05/05 00:01:24;;;;;;;10.52;6.57;;;6.70;99.90;;;;;;5067220;28;20087;-88
2021/05/05 00:03:49;;;;;;;11.60;5.45;;;6.70;99.90;;;;;;5069658;28;20024;-89
2021/05/05 00:06:17;;;;;;;9.32;4.22;;;6.80;99.90;;;;;;5062819;28;20028;-88
2021/05/05 00:08:43;;;;;;;9.85;4.90;;;6.80;99.90;;;;;;5066224;28;20024;-88
2021/05/05 00:11:08;;;;;;;6.05;4.47;;;6.80;99.90;;;;;;5069925;28;20383;-89
2021/05/05 00:13:34;;;;;;;7.03;5.40;;;6.80;99.90;;;;;;5075434;28;20491;-88
2021/05/05 00:16:00;;;;;;;11.18;5.45;;;6.90;99.90;;;;;;5069296;28;20159;-89
2021/05/05 00:18:25;;;;;;;10.40;4.88;;;6.90;99.90;;;;;;5069086;28;20040;-88
2021/05/05 00:20:51;;;;;;;10.98;4.70;;;6.90;99.90;;;;;;5081099;28;20118;-89
2021/05/05 00:23:17;;;;;;;8.20;3.97;;;6.90;99.90;;;;;;5066959;28;20025;-88
2021/05/05 00:25:42;;;;;;;7.03;3.85;;;6.90;99.90;;;;;;5064450;28;20027;-88
2021/05/05 00:28:08;;;;;;;4.40;2.78;;;6.90;99.90;;;;;;5066277;28;20020;-88
2021/05/05 00:30:35;;;;;;;5.63;2.53;;;6.90;99.90;;;;;;5062020;28;20124;-88
2021/05/05 00:33:00;;;;;;;6.82;2.30;;;6.90;99.90;;;;;;5068821;28;20021;-88
2021/05/05 00:35:26;;;;;;;5.53;2.15;;;6.90;99.90;;;;;;5063059;28;20047;-88
2021/05/05 00:37:51;;;;;;;6.60;2.00;;;6.80;99.90;;;;;;5067063;28;20021;-88
2021/05/05 00:40:17;;;;;;;6.00;1.63;;;6.90;99.90;;;;;;5068549;28;20131;-88
2021/05/05 00:42:43;;;;;;;5.78;1.90;;;6.80;99.90;;;;;;5066498;28;20024;-87
2021/05/05 00:45:11;;;;;;;5.75;1.80;;;6.80;99.90;;;;;;5068755;28;20066;-88
2021/05/05 00:47:38;;;;;;;8.85;2.63;;;6.80;99.90;;;;;;5067995;28;20023;-88
2021/05/05 00:50:10;;;;;;;5.03;1.33;;;6.80;99.90;;;;;;5070009;28;20117;-87
2021/05/05 00:52:36;;;;;;;5.85;1.65;;;6.80;99.90;;;;;;5071353;28;20066;-88
2021/05/05 00:55:03;;;;;;;8.68;1.73;;;6.80;99.90;;;;;;5067079;28;20024;-90
2021/05/05 00:57:29;;;;;;;7.95;2.42;;;6.70;99.90;;;;;;5084381;28;20075;-90
2021/05/05 00:59:54;;;;;;;11.93;1.80;;;6.60;99.90;;;;;;5070633;28;20083;-89
2021/05/05 01:02:21;;;;;;;4.63;1.95;;;6.40;99.90;;;;;;5071157;28;20021;-89
2021/05/05 01:04:46;;;;;;;5.50;1.38;;;6.30;99.90;;;;;;5072265;28;20032;-89
2021/05/05 01:07:12;;;;;;;4.35;1.20;;;6.30;99.90;;;;;;5069917;28;20040;-89
2021/05/05 01:09:42;;;;;;;4.13;1.40;;;6.30;99.90;;;;;;5070006;28;20020;-89
2021/05/05 01:12:09;;;;;;;5.03;1.40;;;6.30;99.90;;;;;;5064743;28;20029;-89
2021/05/05 01:14:35;;;;;;;8.15;1.35;;;6.30;99.90;;;;;;5069329;28;20733;-88
2021/05/05 01:17:00;;;;;;;5.63;2.00;;;6.30;99.90;;;;;;5069497;28;20020;-88
2021/05/05 01:19:26;;;;;;;8.05;1.73;;;6.30;99.90;;;;;;5070806;28;20033;-88
2021/05/05 01:21:52;;;;;;;6.80;2.47;;;6.30;99.90;;;;;;5069225;28;20032;-89
2021/05/05 01:24:17;;;;;;;6.57;1.80;;;6.30;99.90;;;;;;5068599;28;20108;-89
2021/05/05 01:26:43;;;;;;;5.47;1.65;;;6.30;99.90;;;;;;5070396;28;20040;-88
2021/05/05 01:29:10;;;;;;;5.45;1.50;;;6.20;99.90;;;;;;5067282;28;20491;-88
2021/05/05 01:31:36;;;;;;;6.80;1.48;;;6.20;99.90;;;;;;5067123;28;20493;-88
2021/05/05 01:34:02;;;;;;;5.82;1.60;;;6.20;99.90;;;;;;5065991;28;20043;-88
2021/05/05 01:36:31;;;;;;;4.35;1.35;;;6.20;99.90;;;;;;5068739;28;20044;-89
2021/05/05 01:38:57;;;;;;;5.68;1.73;;;6.20;99.90;;;;;;5065650;28;20043;-88
2021/05/05 01:41:23;;;;;;;6.68;1.85;;;6.10;99.90;;;;;;5067885;28;20062;-88
2021/05/05 01:43:48;;;;;;;3.78;1.92;;;6.20;99.90;;;;;;5073460;28;20024;-88
2021/05/05 01:46:17;;;;;;;4.15;1.83;;;6.10;99.90;;;;;;5069279;28;20019;-88
2021/05/05 01:48:42;;;;;;;6.55;2.10;;;6.10;99.90;;;;;;5069751;28;20021;-88
2021/05/05 01:51:08;;;;;;;9.30;2.38;;;6.20;99.90;;;;;;5079614;28;20052;-88
2021/05/05 01:53:34;;;;;;;5.22;1.55;;;6.20;99.90;;;;;;5067695;28;20538;-88
2021/05/05 01:56:00;;;;;;;5.00;1.85;;;6.30;99.90;;;;;;5065736;28;20078;-88
2021/05/05 01:58:25;;;;;;;6.88;2.38;;;6.30;99.90;;;;;;5067608;28;20074;-88
2021/05/05 02:00:51;;;;;;;4.22;1.88;;;6.30;99.90;;;;;;5079720;28;20028;-88
2021/05/05 02:03:16;;;;;;;3.97;1.70;;;6.30;99.90;;;;;;5070394;28;20025;-88
2021/05/05 02:05:42;;;;;;;7.10;2.03;;;6.30;99.90;;;;;;5069752;28;20032;-88
2021/05/05 02:08:08;;;;;;;5.75;2.22;;;6.30;99.90;;;;;;5074240;28;20025;-87
2021/05/05 02:10:33;;;;;;;6.35;2.67;;;6.40;99.90;;;;;;5063048;28;20032;-88
2021/05/05 02:12:59;;;;;;;5.60;2.20;;;6.30;99.90;;;;;;5069935;28;20028;-88
2021/05/05 02:15:24;;;;;;;7.55;2.72;;;6.30;99.90;;;;;;5070010;28;20025;-87
2021/05/05 02:17:51;;;;;;;10.57;2.38;;;6.30;99.90;;;;;;5070485;28;20012;-89
2021/05/05 02:20:19;;;;;;;8.32;1.00;;;6.30;99.90;;;;;;5063156;28;20028;-91
2021/05/05 02:22:46;;;;;;;7.50;1.20;;;5.80;99.90;;;;;;5074073;28;20155;-90
2021/05/05 02:25:12;;;;;;;7.15;1.13;;;5.20;99.90;;;;;;5069389;28;20024;-91
2021/05/05 02:27:39;;;;;;;6.72;1.50;;;4.80;99.90;;;;;;5061064;28;20025;-90
2021/05/05 02:30:08;;;;;;;7.25;1.30;;;4.60;99.90;;;;;;5070794;28;20016;-91
2021/05/05 02:32:35;;;;;;;7.27;1.23;;;4.50;99.90;;;;;;5067521;28;20033;-92
2021/05/05 02:35:02;;;;;;;8.20;1.40;;;4.50;99.90;;;;;;5069480;28;20310;-91
2021/05/05 02:37:27;;;;;;;8.13;1.50;;;4.60;99.90;;;;;;5072773;28;20021;-92
2021/05/05 02:39:54;;;;;;;5.53;1.40;;;4.60;99.90;;;;;;5070282;28;20533;-90
2021/05/05 02:42:20;;;;;;;6.18;1.73;;;4.70;99.90;;;;;;5073305;28;20024;-92
2021/05/05 02:44:48;;;;;;;5.22;1.38;;;4.70;99.90;;;;;;5072510;28;20047;-91
2021/05/05 02:47:15;;;;;;;3.38;1.17;;;4.70;99.90;;;;;;5065961;28;20021;-93
2021/05/05 02:49:40;;;;;;;5.93;1.30;;;4.70;99.90;;;;;;5080256;28;20025;-91
2021/05/05 02:52:06;;;;;;;6.65;1.35;;;4.70;99.90;;;;;;5063480;28;20186;-92
2021/05/05 02:54:34;;;;;;;8.68;1.85;;;4.70;99.90;;;;;;5069959;28;20016;-91
2021/05/05 02:56:59;;;;;;;6.90;2.70;;;4.70;99.90;;;;;;5067312;28;20036;-90
2021/05/05 02:59:25;;;;;;;7.15;1.80;;;4.70;99.90;;;;;;5079773;28;20028;-91
2021/05/05 03:01:56;;;;;;;7.75;4.05;;;4.80;99.90;;;;;;5067607;28;20025;-92
2021/05/05 03:04:22;;;;;;;6.68;2.95;;;4.80;99.90;;;;;;5067695;28;20044;-91
2021/05/05 03:06:48;;;;;;;9.35;3.08;;;4.90;99.90;;;;;;5061198;28;20021;-92
2021/05/05 03:09:17;;;;;;;8.10;4.10;;;4.90;99.90;;;;;;5066876;28;20029;-92
2021/05/05 03:11:43;;;;;;;8.93;5.50;;;4.90;99.90;;;;;;5063007;28;20037;-92
2021/05/05 03:14:09;;;;;;;9.98;5.72;;;4.90;99.90;;;;;;5064996;28;20025;-91
2021/05/05 03:16:35;;;;;;;9.60;6.10;;;5.00;99.90;;;;;;5074411;28;20373;-91
2021/05/05 03:19:00;;;;;;;11.57;6.13;;;5.00;99.90;;;;;;5060691;28;20536;-91
2021/05/05 03:21:26;;;;;;;10.80;5.57;;;5.10;99.90;;;;;;5070519;28;20029;-91
2021/05/05 03:23:51;;;;;;;12.50;6.22;;;5.10;99.90;;;;;;5064929;28;20036;-91
2021/05/05 03:26:17;;;;;;;7.30;5.43;;;5.10;99.90;;;;;;5067485;28;20037;-91
2021/05/05 03:28:43;;;;;;;16.33;5.28;;;5.20;99.90;;;;;;5071391;28;20033;-91
2021/05/05 03:31:08;;;;;;;15.43;6.20;;;5.20;99.90;;;;;;5072586;28;20044;-91
2021/05/05 03:33:34;;;;;;;9.60;5.30;;;5.30;99.90;;;;;;5069283;28;20527;-91
2021/05/05 03:35:59;;;;;;;9.93;5.30;;;5.30;99.90;;;;;;5070428;28;20020;-91
2021/05/05 03:38:26;;;;;;;14.50;5.63;;;5.40;99.90;;;;;;5069241;28;20033;-91
2021/05/05 03:40:51;;;;;;;10.98;5.95;;;5.40;99.90;;;;;;5070965;28;20074;-92
2021/05/05 03:43:18;;;;;;;12.80;5.45;;;5.40;99.90;;;;;;5073173;28;20021;-91
2021/05/05 03:45:45;;;;;;;15.20;5.80;;;5.40;99.90;;;;;;5067749;28;20099;-91
2021/05/05 03:48:11;;;;;;;12.18;5.18;;;5.40;99.90;;;;;;5080145;28;20045;-92
2021/05/05 03:50:36;;;;;;;11.20;5.68;;;5.40;99.90;;;;;;5066336;28;20047;-91
2021/05/05 03:53:02;;;;;;;11.23;5.95;;;5.30;99.90;;;;;;5073050;28;20025;-92
2021/05/05 03:55:28;;;;;;;9.98;5.32;;;5.30;99.90;;;;;;5071429;28;20017;-91
2021/05/05 03:57:54;;;;;;;18.00;5.63;;;5.30;99.90;;;;;;5069794;28;20107;-92
2021/05/05 04:00:19;;;;;;;15.40;5.22;;;5.40;99.90;;;;;;5069262;28;20055;-92
2021/05/05 04:02:45;;;;;;;13.15;5.07;;;5.40;99.90;;;;;;5072920;28;20132;-91
2021/05/05 04:05:11;;;;;;;14.73;5.40;;;5.40;99.90;;;;;;5065888;28;20049;-92
2021/05/05 04:07:37;;;;;;;13.82;5.90;;;5.40;99.90;;;;;;5068307;28;20016;-91
2021/05/05 04:10:05;;;;;;;14.35;7.57;;;5.40;99.90;;;;;;5066293;28;20116;-92
2021/05/05 04:12:30;;;;;;;16.63;7.15;;;5.50;99.90;;;;;;5083903;28;20111;-91
2021/05/05 04:14:56;;;;;;;14.85;6.80;;;5.40;99.90;;;;;;5067765;28;20518;-91
2021/05/05 04:17:23;;;;;;;14.25;6.32;;;5.30;99.90;;;;;;5065414;28;20059;-91
2021/05/05 04:19:48;;;;;;;11.85;6.32;;;5.30;99.90;;;;;;5072274;28;20021;-90
2021/05/05 04:22:14;;;;;;;13.45;6.72;;;5.30;99.90;;;;;;5071123;28;20107;-92
2021/05/05 04:24:40;;;;;;;15.82;7.50;;;5.30;99.90;;;;;;5071627;28;20521;-92
2021/05/05 04:27:05;;;;;;;14.65;6.80;;;5.40;99.90;;;;;;5069271;28;20494;-91
2021/05/05 04:29:31;;;;;;;17.92;6.57;;;5.40;99.90;;;;;;5068588;28;20051;-90
2021/05/05 04:31:58;;;;;;;15.10;5.93;;;5.40;99.90;;;;;;5060870;28;20049;-91
2021/05/05 04:34:25;;;;;;;12.20;5.10;;;5.40;99.90;;;;;;5070599;28;20028;-91
2021/05/05 04:36:51;;;;;;;12.88;4.60;;;5.40;99.90;;;;;;5073304;28;20047;-90
2021/05/05 04:39:16;;;;;;;9.68;4.32;;;5.40;99.90;;;;;;5070645;28;20470;-92
2021/05/05 04:41:42;;;;;;;8.45;4.13;;;5.30;99.90;;;;;;5070596;28;20058;-91
2021/05/05 04:44:08;;;;;;;11.63;3.35;;;5.30;99.90;;;;;;5070209;28;20025;-91
2021/05/05 04:46:34;;;;;;;6.85;3.60;;;5.30;99.90;;;;;;5062916;28;20058;-91
2021/05/05 04:48:59;;;;;;;6.45;3.15;;;5.30;99.90;;;;;;5067743;28;20438;-91
2021/05/05 04:51:25;;;;;;;9.52;2.60;;;5.30;99.90;;;;;;5070218;28;20725;-90
2021/05/05 04:53:50;;;;;;;8.38;2.70;;;5.30;99.90;;;;;;5073733;28;20028;-91
2021/05/05 04:56:16;;;;;;;7.65;2.75;;;5.30;99.90;;;;;;5069086;28;20025;-91
2021/05/05 04:58:41;;;;;;;5.70;2.45;;;5.30;99.90;;;;;;5068063;28;20016;-91
2021/05/05 05:01:07;;;;;;;12.27;3.92;;;5.30;99.90;;;;;;5069200;28;20503;-91
2021/05/05 05:03:32;;;;;;;10.40;4.45;;;5.30;99.90;;;;;;5068655;28;20031;-91
2021/05/05 05:05:58;;;;;;;7.47;3.28;;;5.40;99.90;;;;;;5068021;28;20066;-90
2021/05/05 05:08:24;;;;;;;10.68;4.07;;;5.40;99.90;;;;;;5065468;28;20029;-90
2021/05/05 05:10:49;;;;;;;10.27;3.30;;;5.40;99.90;;;;;;5072590;28;20494;-91
2021/05/05 05:13:16;;;;;;;5.20;2.70;;;5.40;99.90;;;;;;5075272;28;20484;-89
2021/05/05 05:15:41;;;;;;;10.50;3.17;;;5.40;99.90;;;;;;5072962;28;20024;-90
2021/05/05 05:18:07;;;;;;;7.80;2.80;;;5.40;99.90;;;;;;5075661;28;20028;-90
2021/05/05 05:20:32;;;;;;;8.40;2.85;;;5.40;99.90;;;;;;5075493;28;20358;-90
2021/05/05 05:22:58;;;;;;;11.15;3.97;;;5.50;99.90;;;;;;5075475;28;20066;-91
2021/05/05 05:25:25;;;;;;;4.97;3.20;;;5.50;99.90;;;;;;5076012;28;20108;-90
2021/05/05 05:27:52;;;;;;;6.90;3.00;;;5.50;99.90;;;;;;5075294;28;20023;-90
2021/05/05 05:30:18;;;;;;;8.77;3.67;;;5.50;99.90;;;;;;5075254;28;20016;-90
2021/05/05 05:32:44;;;;;;;16.40;4.07;;;5.50;99.90;;;;;;5075091;28;20491;-89
2021/05/05 05:35:11;;;;;;;12.30;4.50;;;5.50;99.90;;;;;;5075243;28;20029;-91
2021/05/05 05:37:36;;;;;;;11.68;3.75;;;5.50;99.90;;;;;;5074894;28;20031;-89
2021/05/05 05:40:03;;;;;;;12.38;3.45;;;5.50;99.90;;;;;;5074107;28;20119;-85
2021/05/05 05:42:29;;;;;;;6.88;3.85;;;5.50;99.90;;;;;;5073406;28;20078;-85
2021/05/05 05:44:54;;;;;;;9.70;3.03;;;5.50;99.90;;;;;;5073517;28;20020;-86
2021/05/05 05:47:20;;;;;;;7.93;2.95;;;5.50;99.90;;;;;;5074559;28;20036;-86
2021/05/05 05:49:45;;;;;;;8.68;2.83;;;5.60;99.90;;;;;;5073753;28;20066;-84
2021/05/05 05:52:11;;;;;;;5.95;3.25;;;5.60;99.90;;;;;;5073578;28;20021;-85
2021/05/05 05:54:36;;;;;;;4.63;2.40;;;5.70;99.90;;;;;;5073700;28;20047;-87
2021/05/05 05:57:02;;;;;;;6.65;2.25;;;5.70;99.90;;;;;;5073519;28;20468;-86
2021/05/05 05:59:28;;;;;;;7.25;2.28;;;5.80;99.90;;;;;;5074384;28;20396;-85
2021/05/05 06:01:53;;;;;;;6.90;2.38;;;5.90;99.90;;;;;;5073328;28;20059;-86
2021/05/05 06:04:19;;;;;;;6.60;2.65;;;5.90;99.90;;;;;;5073382;28;20361;-86
2021/05/05 06:06:45;;;;;;;4.38;1.60;;;5.90;99.90;;;;;;5073238;28;20086;-85
2021/05/05 06:09:11;;;;;;;5.60;1.70;;;5.90;99.90;;;;;;5073522;28;20025;-86
2021/05/05 06:11:36;;;;;;;6.10;1.65;;;5.80;99.90;;;;;;5074464;28;20029;-86
2021/05/05 06:14:03;;;;;;;5.50;1.67;;;5.80;99.90;;;;;;5073423;28;20039;-86
2021/05/05 06:16:28;;;;;;;4.60;1.38;;;5.80;99.90;;;;;;5074095;28;20039;-85
2021/05/05 06:18:54;;;;;;;5.40;1.20;;;5.70;99.90;;;;;;5074268;28;20017;-84
2021/05/05 06:21:20;;;;;;;5.07;1.30;;;5.60;99.90;;;;;;5073020;28;20027;-84
2021/05/05 06:23:45;;;;;;;8.13;1.75;;;5.50;99.90;;;;;;5072858;28;20029;-84
2021/05/05 06:26:11;;;;;;;5.22;1.45;;;5.40;99.90;;;;;;5072759;28;20024;-84
2021/05/05 06:28:36;;;;;;;4.72;1.25;;;5.40;99.90;;;;;;5072766;28;20103;-84
2021/05/05 06:31:02;;;;;;;8.68;1.77;;;5.30;99.90;;;;;;5072549;28;20052;-84
2021/05/05 06:33:27;;;;;;;7.03;1.88;;;5.40;99.90;;;;;;5074011;28;20047;-82
2021/05/05 06:35:53;;;;;;;4.53;1.45;;;5.40;99.90;;;;;;5071481;28;20399;-84
2021/05/05 06:38:19;;;;;;;5.63;1.92;;;5.40;99.90;;;;;;5073804;28;20028;-87
2021/05/05 06:40:44;;;;;;;6.78;2.67;;;5.40;99.90;;;;;;5073957;28;20016;-85
2021/05/05 06:43:10;;;;;;;7.60;3.42;;;5.30;99.90;;;;;;5072140;28;20052;-87
2021/05/05 06:45:36;;;;;;;6.80;5.25;;;5.30;99.90;;;;;;5073850;28;20017;-86
2021/05/05 06:48:02;;;;;;;6.90;6.20;;;5.40;99.90;;;;;;5071914;28;20103;-87
2021/05/05 06:50:28;;;;;;;9.48;7.15;;;5.50;99.90;;;;;;5073706;28;20099;-87
2021/05/05 06:52:55;;;;;;;9.00;7.07;;;5.60;99.90;;;;;;5077019;28;20652;-88
2021/05/05 06:55:21;;;;;;;10.45;5.00;;;5.70;99.90;;;;;;5110038;28;20016;-88
2021/05/05 06:57:46;;;;;;;8.82;3.67;;;5.80;99.90;;;;;;5088986;28;20522;-88
2021/05/05 07:00:12;;;;;;;5.50;2.70;;;6.00;99.90;;;;;;5072862;28;20537;-88
2021/05/05 07:02:38;;;;;;;9.07;3.33;;;6.20;99.90;;;;;;5073748;28;20051;-87
2021/05/05 07:05:04;;;;;;;12.10;3.53;;;6.40;99.90;;;;;;5072815;28;20032;-87
2021/05/05 07:07:29;;;;;;;8.45;2.92;;;6.40;99.90;;;;;;5072598;28;20400;-88
2021/05/05 07:09:56;;;;;;;8.50;2.88;;;6.50;99.90;;;;;;5073908;28;20024;-89
2021/05/05 07:12:21;;;;;;;7.38;2.70;;;6.50;99.90;;;;;;5074016;28;20024;-88
2021/05/05 07:14:47;;;;;;;17.00;2.80;;;6.50;99.90;;;;;;5072755;28;20541;-87
2021/05/05 07:17:13;;;;;;;11.00;3.00;;;6.60;99.90;;;;;;5073722;28;20194;-88
2021/05/05 07:19:38;;;;;;;9.00;2.35;;;6.70;99.90;;;;;;5072525;28;20021;-88
2021/05/05 07:22:05;;;;;;;8.82;2.75;;;6.70;99.90;;;;;;5072422;28;20479;-88
2021/05/05 07:24:30;;;;;;;11.55;2.85;;;6.70;99.90;;;;;;5073606;28;20029;-88
2021/05/05 07:26:56;;;;;;;12.32;3.28;;;6.60;99.90;;;;;;5072434;28;20027;-89
2021/05/05 07:29:21;;;;;;;12.40;3.08;;;6.40;99.90;;;;;;5073270;28;20498;-88
2021/05/05 07:31:47;;;;;;;11.40;3.63;;;6.30;99.90;;;;;;5071806;28;20044;-88
2021/05/05 07:34:14;;;;;;;12.75;3.33;;;6.10;99.90;;;;;;5072538;28;20025;-89
2021/05/05 07:36:44;;;;;;;14.57;3.47;;;6.00;99.90;;;;;;5072212;28;20055;-88
2021/05/05 07:39:28;;;;;;;9.32;2.75;;;5.90;99.90;;;;;;5072445;28;20028;-87
2021/05/05 07:42:28;;;;;;;7.60;3.22;;;5.70;99.90;;;;;;5072033;28;20060;-87
2021/05/05 07:47:44;;;;;;;15.75;4.05;;;5.30;99.90;;;;;;5075133;28;19911;-88
2021/05/05 07:50:12;;;;;;;12.35;3.17;;;5.30;99.90;;;;;;5073415;28;20020;-88
2021/05/05 07:52:37;;;;;;;9.75;1.95;;;5.70;99.90;;;;;;5075963;28;20146;-88
2021/05/05 07:55:06;;;;;;;8.82;3.60;;;6.00;99.90;;;;;;5076027;28;20486;-89
2021/05/05 07:57:32;;;;;;;7.60;1.98;;;6.10;99.90;;;;;;5074411;28;20498;-89
2021/05/05 07:59:57;;;;;;;7.38;1.58;;;6.30;99.90;;;;;;5077702;28;20037;-88
2021/05/05 08:02:23;;;;;;;12.45;2.20;;;6.40;99.90;;;;;;5093702;28;20060;-89
2021/05/05 08:04:49;;;;;;;5.03;1.20;;;6.50;99.90;;;;;;5076608;28;20024;-88
2021/05/05 08:07:19;;;;;;;4.88;1.35;;;6.60;99.90;;;;;;5077229;28;20100;-89
2021/05/05 08:09:46;;;;;;;8.55;1.83;;;6.70;99.90;;;;;;5076449;28;20031;-89
2021/05/05 08:12:12;;;;;;;5.95;1.20;;;6.80;99.90;;;;;;5077959;28;20360;-90
2021/05/05 08:14:39;;;;;;;8.15;1.23;;;6.90;99.90;;;;;;5093486;28;20024;-89
2021/05/05 08:17:05;;;;;;;5.28;1.40;;;7.00;99.90;;;;;;5077538;28;20472;-89
2021/05/05 08:19:31;;;;;;;7.93;1.60;;;7.10;99.90;;;;;;5093201;28;20036;-89
2021/05/05 08:21:56;;;;;;;6.93;1.40;;;7.20;99.90;;;;;;5092790;28;20027;-90
2021/05/05 08:24:22;;;;;;;10.82;1.52;;;7.10;99.90;;;;;;5094840;28;20024;-87
2021/05/05 08:26:47;;;;;;;8.43;1.30;;;7.20;99.90;;;;;;5095233;28;20024;-87
2021/05/05 08:29:13;;;;;;;8.63;1.50;;;7.30;99.90;;;;;;5077619;28;20086;-88
2021/05/05 08:31:39;;;;;;;7.32;1.80;;;7.30;99.90;;;;;;5078025;28;20036;-89
2021/05/05 08:34:04;;;;;;;4.80;1.23;;;7.50;99.90;;;;;;5077212;28;20494;-90
2021/05/05 08:36:30;;;;;;;9.68;2.17;;;7.50;99.90;;;;;;5092533;28;20379;-89
2021/05/05 08:38:57;;;;;;;9.75;1.35;;;7.60;99.90;;;;;;5092495;28;20021;-91
2021/05/05 08:41:23;;;;;;;11.07;1.73;;;7.70;99.90;;;;;;5075588;28;20364;-89
2021/05/05 08:43:49;;;;;;;8.80;2.17;;;7.80;99.90;;;;;;5075806;28;20032;-89
2021/05/05 08:46:17;;;;;;;5.53;1.42;;;7.70;99.90;;;;;;5076642;28;20025;-90
2021/05/05 08:48:43;;;;;;;7.68;1.98;;;7.70;99.90;;;;;;5075139;28;20044;-86
2021/05/05 08:51:10;;;;;;;10.40;1.58;;;7.80;99.90;;;;;;5074943;28;20024;-87
2021/05/05 08:53:36;;;;;;;7.47;2.00;;;7.60;99.90;;;;;;5074670;28;20029;-86
2021/05/05 08:56:01;;;;;;;13.82;1.88;;;7.40;99.90;;;;;;5074906;28;20046;-90
2021/05/05 08:58:27;;;;;;;8.20;1.85;;;7.30;99.90;;;;;;5074900;28;20029;-88
2021/05/05 09:00:53;;;;;;;5.88;1.60;;;7.30;99.90;;;;;;5074086;28;20032;-86
2021/05/05 09:03:29;;;;;;;6.13;1.38;;;7.40;99.90;;;;;;5075399;28;20071;-86
2021/05/05 09:06:00;;;;;;;8.73;2.83;;;7.50;99.90;;;;;;5075677;28;20052;-86
2021/05/05 09:08:28;;;;;;;11.52;1.75;;;7.80;99.90;;;;;;5074232;28;20074;-87
2021/05/05 09:10:58;;;;;;;8.95;1.60;;;7.90;99.90;;;;;;5074447;28;20028;-85
2021/05/05 09:13:43;;;;;;;8.68;2.10;;;8.00;99.90;;;;;;5074378;28;20122;-87
2021/05/05 09:16:10;;;;;;;11.15;1.95;;;8.20;99.90;;;;;;5073766;28;20043;-85
2021/05/05 09:19:01;;;;;;;12.88;1.63;;;8.30;99.90;;;;;;5070110;28;20023;-86
2021/05/05 09:21:29;;;;;;;6.85;1.70;;;8.40;99.90;;;;;;5073267;28;20028;-83
2021/05/05 09:24:13;;;;;;;6.57;1.20;;;8.50;99.90;;;;;;5070923;28;20119;-83
2021/05/05 09:26:39;;;;;;;7.45;1.85;;;8.50;99.80;;;;;;5082500;28;20020;-82
2021/05/05 09:29:05;;;;;;;7.63;1.77;;;8.40;99.90;;;;;;5070447;28;20522;-83
2021/05/05 09:31:35;;;;;;;12.32;2.13;;;8.10;99.90;;;;;;5074066;28;20045;-83
2021/05/05 09:34:02;;;;;;;9.25;1.90;;;8.00;99.90;;;;;;5086350;28;20028;-82
2021/05/05 09:36:28;;;;;;;14.05;1.98;;;7.90;99.90;;;;;;5071979;28;20021;-82
2021/05/05 09:38:54;;;;;;;14.23;2.28;;;7.60;99.90;;;;;;5071941;28;21929;-82
2021/05/05 09:41:22;;;;;;;7.78;1.10;;;7.40;99.90;;;;;;5069535;28;20012;-82
2021/05/05 09:43:49;;;;;;;4.63;1.00;;;7.10;99.90;;;;;;5071759;28;20020;-83
2021/05/05 09:46:45;;;;;;;4.15;0.50;;;6.80;99.90;;;;;;5073281;28;20390;-83
2021/05/05 09:49:25;;;;;;;1.65;0.30;;;6.30;99.90;;;;;;5084723;28;20024;-84
2021/05/05 09:52:19;;;;;;;2.05;0.30;;;5.90;99.90;;;;;;5081930;28;20032;-84
2021/05/05 09:54:53;;;;;;;2.33;0.60;;;5.70;99.90;;;;;;5078513;28;20115;-84
2021/05/05 09:57:28;;;;;;;3.63;0.40;;;5.70;99.90;;;;;;5083966;28;20017;-85
2021/05/05 10:00:07;;;;;;;0.85;0.30;;;5.80;99.90;;;;;;5071182;28;20043;-86
2021/05/05 10:02:48;;;;;;;1.20;0.30;;;6.30;99.90;;;;;;5066459;28;20024;-85
2021/05/05 10:05:17;;;;;;;4.13;0.50;;;6.30;99.90;;;;;;5060179;28;20039;-85
2021/05/05 10:07:51;;;;;;;4.75;0.73;;;6.10;99.90;;;;;;5067873;28;20032;-84
2021/05/05 10:10:17;;;;;;;5.82;0.70;;;6.00;99.90;;;;;;5067094;28;20028;-85
2021/05/05 10:12:44;;;;;;;6.30;1.02;;;5.80;99.90;;;;;;5065348;28;20017;-85
2021/05/05 10:15:11;;;;;;;4.63;0.98;;;5.80;99.90;;;;;;5063301;28;20059;-83
2021/05/05 10:17:37;;;;;;;6.53;1.40;;;5.90;99.90;;;;;;5060423;28;20017;-83
2021/05/05 10:20:04;;;;;;;7.22;1.10;;;6.10;99.90;;;;;;5072159;28;20032;-83
2021/05/05 10:22:29;;;;;;;5.00;1.40;;;6.30;99.90;;;;;;5069916;28;20082;-83
2021/05/05 10:24:57;;;;;;;8.68;1.20;;;6.60;99.90;;;;;;5067205;28;20021;-84
2021/05/05 10:27:23;;;;;;;6.75;1.90;;;7.80;99.90;;;;;;5067766;28;20115;-83
2021/05/05 10:29:50;;;;;;;9.98;2.05;;;9.50;99.90;;;;;;5071621;28;20028;-82
2021/05/05 10:32:21;;;;;;;6.32;1.08;;;11.20;99.90;;;;;;5072838;28;20412;-83
2021/05/05 10:34:50;;;;;;;13.60;1.70;;;12.20;99.40;;;;;;5074035;28;20020;-82
2021/05/05 10:37:16;;;;;;;6.95;1.73;;;13.10;97.30;;;;;;5071610;28;20035;-83
2021/05/05 10:39:43;;;;;;;4.13;1.20;;;13.90;93.50;;;;;;5071848;28;20479;-83
2021/05/05 10:42:21;;;;;;;4.57;0.88;;;13.90;93.10;;;;;;5071714;28;20042;-82
2021/05/05 10:44:50;;;;;;;9.88;1.90;;;13.10;91.70;;;;;;5072874;28;20016;-82
2021/05/05 10:47:27;;;;;;;5.57;1.38;;;11.50;94.10;;;;;;5071605;28;20020;-83
2021/05/05 10:50:08;;;;;;;7.72;1.23;;;10.20;97.40;;;;;;5073154;28;20024;-83
2021/05/05 10:52:42;;;;;;;6.65;1.40;;;9.40;99.80;;;;;;5059752;28;20754;-83
2021/05/05 10:55:10;;;;;;;7.47;2.05;;;10.60;99.90;;;;;;5073513;28;20028;-83
2021/05/05 10:57:37;;;;;;;8.10;1.40;;;12.10;96.80;;;;;;5074323;28;20367;-84
2021/05/05 11:00:23;;;;;;;7.88;1.55;;;12.90;92.20;;;;;;5073379;28;20016;-84
2021/05/05 11:02:57;;;;;;;5.05;1.02;;;12.80;91.70;;;;;;5073252;28;20024;-83
2021/05/05 11:05:29;;;;;;;6.97;1.60;;;13.30;90.20;;;;;;5072282;28;20055;-84
2021/05/05 11:07:55;;;;;;;3.78;0.45;;;13.70;82.50;;;;;;5074697;28;20082;-83
2021/05/05 11:10:39;;;;;;;4.07;0.50;;;12.30;83.50;;;;;;5073843;28;20031;-82
2021/05/05 11:13:13;;;;;;;3.13;0.40;;;10.70;87.50;;;;;;5073829;28;20036;-84
2021/05/05 11:15:44;;;;;;;2.75;0.38;;;9.80;92.60;;;;;;5087622;28;20016;-84
2021/05/05 11:18:35;;;;;;;5.93;1.10;;;9.30;94.00;;;;;;5087834;28;20027;-83
2021/05/05 11:21:32;;;;;;;5.93;1.33;;;8.90;95.40;;;;;;5087492;28;20105;-83
2021/05/05 11:23:58;;;;;;;5.20;1.40;;;10.80;95.30;;;;;;5087620;28;20020;-83
2021/05/05 11:26:26;;;;;;;4.63;0.80;;;11.30;91.50;;;;;;5071702;28;20468;-83
2021/05/05 11:29:01;;;;;;;5.15;0.88;;;10.90;91.10;;;;;;5071181;28;20029;-83
2021/05/05 11:31:49;;;;;;;4.15;0.90;;;11.10;91.10;;;;;;5087337;28;20036;-83
2021/05/05 11:34:21;;;;;;;5.68;1.10;;;12.30;87.60;;;;;;5087425;28;20044;-84
2021/05/05 11:37:07;;;;;;;5.95;1.88;;;13.10;83.10;;;;;;5071730;28;20035;-84
2021/05/05 11:39:48;;;;;;;7.68;1.20;;;13.90;83.40;;;;;;5070554;28;20028;-84
2021/05/05 11:42:16;;;;;;;7.20;1.20;;;13.90;77.70;;;;;;5070870;28;20433;-84
2021/05/05 11:44:51;;;;;;;8.52;1.50;;;13.00;78.60;;;;;;5070552;28;20499;-84
2021/05/05 11:47:27;;;;;;;9.25;1.95;;;13.30;82.20;;;;;;5070573;28;20061;-84
2021/05/05 11:49:55;;;;;;;9.48;1.48;;;13.70;79.70;;;;;;5071828;28;20056;-83
2021/05/05 11:52:29;;;;;;;5.68;1.42;;;14.70;78.00;;;;;;5066993;28;20031;-82
2021/05/05 11:55:01;;;;;;;4.25;1.20;;;15.20;71.00;;;;;;5071087;28;20506;-83
2021/05/05 11:57:31;;;;;;;13.43;1.90;;;15.30;67.40;;;;;;5069154;28;20017;-82
2021/05/05 12:00:10;;;;;;;8.02;1.90;;;14.60;70.50;;;;;;5068884;28;20540;-83
2021/05/05 12:02:50;;;;;;;7.90;1.88;;;14.60;71.00;;;;;;5066382;28;20029;-83
2021/05/05 12:05:38;;;;;;;4.78;1.23;;;14.50;70.10;;;;;;5065761;28;20485;-81
2021/05/05 12:08:05;;;;;;;4.70;1.02;;;12.80;71.50;;;;;;5068873;28;20055;-82
2021/05/05 12:10:38;;;;;;;6.20;0.93;;;11.90;76.70;;;;;;5069710;28;20104;-82
2021/05/05 12:13:06;;;;;;;5.40;1.02;;;11.50;76.30;;;;;;5069955;28;20031;-82
2021/05/05 12:15:33;;;;;;;6.93;1.00;;;11.10;77.80;;;;;;5062848;28;20017;-81
2021/05/05 12:18:04;;;;;;;6.68;1.17;;;10.80;78.30;;;;;;5069178;28;20051;-82
2021/05/05 12:20:30;;;;;;;5.20;1.15;;;10.60;80.20;;;;;;5064371;28;20103;-82
2021/05/05 12:22:59;;;;;;;4.75;0.93;;;10.60;82.80;;;;;;5069757;28;20016;-82
2021/05/05 12:25:28;;;;;;;5.95;0.80;;;10.50;87.70;;;;;;5071145;28;20048;-82
2021/05/05 12:28:00;;;;;;;7.53;1.38;;;10.50;85.10;;;;;;5071272;28;20016;-82
2021/05/05 12:30:49;;;;;;;9.10;1.48;;;10.30;86.40;;;;;;5069577;28;20067;-82
2021/05/05 12:33:17;;;;;;;7.57;1.20;;;10.30;86.80;;;;;;5069611;28;20035;-82
2021/05/05 12:35:43;;;;;;;11.32;2.40;;;10.20;88.50;;;;;;5074115;28;20031;-82
2021/05/05 12:38:12;;;;;;;13.85;2.05;;;10.10;89.80;;;;;;5070881;28;20016;-82
2021/05/05 12:40:38;;;;;;;9.30;1.80;;;9.90;89.20;;;;;;5073630;28;20016;-81
2021/05/05 12:43:16;;;;;;;7.57;1.23;;;9.80;89.40;;;;;;5073298;28;20377;-81
2021/05/05 12:45:42;;;;;;;8.18;1.08;;;9.20;92.40;;;;;;5069441;28;20021;-82
2021/05/05 12:48:08;;;;;;;4.10;1.05;;;8.60;95.30;;;;;;5074441;28;20025;-81
2021/05/05 12:50:42;;;;;;;7.43;1.30;;;8.10;95.40;;;;;;5071025;28;20387;-81
2021/05/05 12:53:11;;;;;;;9.50;1.40;;;7.90;96.00;;;;;;5090056;28;20020;-81
2021/05/05 12:55:39;;;;;;;7.95;1.40;;;8.10;96.60;;;;;;5070456;28;20070;-82
2021/05/05 12:58:14;;;;;;;11.20;1.92;;;9.00;98.10;;;;;;5073345;28;20021;-83
2021/05/05 13:00:45;;;;;;;8.52;1.65;;;9.30;96.00;;;;;;5073224;28;20483;-82